Flight Track Log - Related Links

Times and Time Zones

All times are in EDT time to prevent confusion due to time zone crossing. See the UPS1337 flight status page for this flight to view local times or setup timezone preferences in your user account.

Time Position Orientation Groundspeed Altitude Reporting Facility
EDT Latitude Longitude Course Direction KTS MPH feet Rate Location/Type
Tue 09:39:20 PM 27.9167 -82.6833 360° North 205 236 600  Level Tampa TRACON
Tue 09:40:07 PM 27.9667 -82.6833 360° North 187 215 2,700 2,944 Climbing Tampa TRACON
Tue 09:41:08 PM 28.0167 -82.6667 16° North 255 293 5,900 2,641 Climbing Tampa TRACON
Tue 09:47:30 PM 28.6549 -82.6352 North 428 493 22,200 2,325 Climbing FlightAware ADS-B
Tue 09:50:59 PM 29.0925 -82.6166 North 462 532 28,800 1,786 Climbing FlightAware ADS-B
Tue 09:51:52 PM 29.2051 -82.6119 North 464 534 30,000 581 Climbing FlightAware ADS-B
Tue 09:53:03 PM 29.3350 -82.6044 North 459 528 30,000 136 Level Jacksonville Center
Tue 09:59:13 PM 30.1400 -82.5709 North 457 526 31,000 146 Climbing FlightAware ADS-B
Tue 09:59:53 PM 30.2238 -82.5671 North 454 522 31,000  Level FlightAware ADS-B
Tue 10:01:03 PM 30.3622 -82.5628 North 454 522 31,000 -46 Level Jacksonville Center
Tue 10:02:03 PM 30.4875 -82.5575 North 454 522 30,900  Descending Jacksonville Center
Tue 10:03:03 PM 30.6147 -82.5497 North 454 522 31,000 50 Climbing Jacksonville Center
Tue 10:04:03 PM 30.7422 -82.5469 North 454 522 31,000  Level Jacksonville Center
Tue 10:05:03 PM 30.8694 -82.5417 North 460 529 31,000  Level Jacksonville Center
Tue 10:06:03 PM 30.9967 -82.5364 North 455 524 31,000 -50 Level Jacksonville Center
Tue 10:07:03 PM 31.1053 -82.5311 North 449 517 30,900  Descending Jacksonville Center
Tue 10:08:03 PM 31.2286 -82.5258 North 443 510 31,000 50 Climbing Jacksonville Center
Tue 10:09:03 PM 31.3664 -82.5178 North 444 511 31,000 291 Level Jacksonville Center
Tue 10:11:29 PM 31.6458 -82.5508 354° North 435 501 32,000 291 Climbing Atlanta Center
Tue 10:12:29 PM 31.7528 -82.5881 344° North 411 473 32,000  Level Atlanta Center
Tue 10:13:29 PM 31.8594 -82.6281 342° North 406 467 32,000  Level Atlanta Center
Tue 10:14:29 PM 31.9686 -82.6678 343° North 406 467 32,000  Level Atlanta Center
Tue 10:15:29 PM 32.0756 -82.7103 341° North 406 467 32,000  Level Atlanta Center
Tue 10:16:29 PM 32.1822 -82.7506 342° North 406 467 32,000  Level Atlanta Center
Tue 10:17:29 PM 32.2872 -82.7908 342° North 406 467 32,000  Level Atlanta Center
Tue 10:18:29 PM 32.3919 -82.8311 342° North 406 467 32,000  Level Atlanta Center
Tue 10:19:29 PM 32.4986 -82.8689 343° North 406 467 32,000  Level Atlanta Center
Tue 10:20:29 PM 32.6119 -82.9119 342° North 394 453 32,000  Level Atlanta Center
Tue 10:21:29 PM 32.7083 -82.9528 340° North 394 453 32,000  Level Atlanta Center
Tue 10:22:29 PM 32.8192 -82.9908 344° North 389 448 32,000  Level Atlanta Center
Tue 10:23:29 PM 32.9197 -83.0292 342° North 382 440 32,000  Level Atlanta Center
Tue 10:24:29 PM 33.0244 -83.0700 342° North 382 440 32,000  Level Atlanta Center
Tue 10:25:29 PM 33.1228 -83.1111 341° North 382 440 32,000  Level Atlanta Center
Tue 10:26:29 PM 33.2253 -83.1522 341° North 382 440 32,000  Level Atlanta Center
Tue 10:27:29 PM 33.3258 -83.1886 343° North 382 440 32,000  Level Atlanta Center
Tue 10:28:29 PM 33.4283 -83.2275 342° North 382 440 32,000  Level Atlanta Center
Tue 10:29:29 PM 33.5308 -83.2689 341° North 388 447 32,000  Level Atlanta Center
Tue 10:30:29 PM 33.6272 -83.3053 343° North 388 447 32,000  Level Atlanta Center
Tue 10:35:21 PM 34.2358 -83.5386 342° North 388 447 32,000  Level FlightAware ADS-B (KDZJ)
Tue 10:36:03 PM 34.3069 -83.5669 342° North 378 435 32,000  Level FlightAware ADS-B (KDZJ)
Tue 10:36:35 PM 34.3616 -83.5884 342° North 377 434 32,000  Level FlightAware ADS-B (KDZJ)
Tue 10:37:21 PM 34.4384 -83.6187 342° North 388 447 32,000  Level FlightAware ADS-B (KDZJ)
Tue 10:38:00 PM 34.5067 -83.6458 342° North 387 445 32,000  Level FlightAware ADS-B (KDZJ)
Tue 10:38:41 PM 34.5754 -83.6735 342° North 387 445 32,000  Level FlightAware ADS-B (KDZJ)
Tue 10:39:18 PM 34.6394 -83.6986 341° North 377 434 32,000  Level FlightAware ADS-B (KDZJ)
Tue 10:39:56 PM 34.7034 -83.7245 342° North 378 435 32,000  Level FlightAware ADS-B (KDZJ)
Tue 10:40:41 PM 34.7806 -83.7553 342° North 392 451 32,000  Level FlightAware ADS-B (KDZJ)
Tue 10:41:22 PM 34.8503 -83.7831 341° North 374 430 32,000  Level FlightAware ADS-B (KDZJ)
Tue 10:42:02 PM 34.9166 -83.8099 342° North 374 430 32,000  Level FlightAware ADS-B (KDZJ)
Tue 10:42:40 PM 34.9786 -83.8352 342° North 374 430 32,000  Level FlightAware ADS-B (KDZJ)
Tue 10:43:21 PM 35.0472 -83.8624 342° North 374 430 32,000  Level FlightAware ADS-B (KDZJ)
Tue 10:44:02 PM 35.1149 -83.8898 342° North 374 430 32,000  Level FlightAware ADS-B (KDZJ)
Tue 10:44:39 PM 35.1749 -83.9143 342° North 371 427 32,000  Level FlightAware ADS-B (KDZJ)
Tue 10:45:12 PM 35.2287 -83.9361 342° North 371 427 32,000  Level FlightAware ADS-B (KDZJ)
Tue 10:45:50 PM 35.2911 -83.9613 342° North 374 430 32,000  Level FlightAware ADS-B (KDZJ)
Tue 10:46:40 PM 35.3736 -83.9949 342° North 376 433 32,000  Level FlightAware ADS-B (KDZJ)
Tue 10:47:29 PM 35.3614 -83.9928 342° North 370 426 32,000  Level Atlanta Center
Tue 10:48:29 PM 35.4594 -84.0311 342° North 370 426 32,000  Level Atlanta Center
Tue 10:49:29 PM 35.5556 -84.0719 341° North 370 426 32,000  Level Atlanta Center
Tue 10:50:29 PM 35.6494 -84.1103 342° North 370 426 32,000  Level Atlanta Center
Tue 10:51:29 PM 35.7453 -84.1514 341° North 370 426 32,000  Level Atlanta Center
Tue 10:52:29 PM 35.8350 -84.1847 343° North 357 411 32,000 -650 Level Atlanta Center
Tue 10:53:29 PM 35.9225 -84.2233 340° North 346 398 30,700 -638 Descending Atlanta Center
Tue 10:55:37 PM 36.1139 -84.3003 342° North 330 380 30,000 -222 Descending Indianapolis Center
Tue 10:56:38 PM 36.2006 -84.3361 342° North 329 379 30,000  Level Indianapolis Center
Tue 10:57:39 PM 36.2883 -84.3728 341° North 330 380 30,000  Level Indianapolis Center
Tue 10:58:40 PM 36.3756 -84.4089 342° North 330 380 30,000  Level Indianapolis Center
Tue 10:59:41 PM 36.4622 -84.4453 341° North 330 380 30,000 -787 Level Indianapolis Center
Tue 11:00:42 PM 36.5622 -84.4872 341° North 330 380 28,400 -2,066 Descending Indianapolis Center
Tue 11:01:43 PM 36.6356 -84.5181 341° North 329 379 25,800 -2,164 Descending Indianapolis Center
Tue 11:02:44 PM 36.7194 -84.5539 341° North 324 373 24,000 -1,377 Descending Indianapolis Center
Tue 11:03:45 PM 36.8256 -84.5981 342° North 329 379 23,000 -1,342 Descending Indianapolis Center
Tue 11:09:13 PM 37.2983 -84.8000 341° North 303 349 15,300 -1,211 Descending FlightAware ADS-B
Tue 11:14:44 PM 37.6963 -85.0119 292° West 297 342 9,700 -885 Descending FlightAware ADS-B
Tue 11:15:46 PM 37.7382 -85.1244 297° West 250 288 9,500 -1,041 Descending FlightAware ADS-B
Tue 11:16:45 PM 37.7719 -85.2067 297° West 245 282 7,600 -1,815 Descending FlightAware ADS-B
Tue 11:17:45 PM 37.8038 -85.2851 298° West 244 281 5,900 -1,450 Descending FlightAware ADS-B
Tue 11:18:45 PM 37.8336 -85.3577 297° West 237 273 4,700 -1,059 Descending FlightAware ADS-B
Tue 11:19:44 PM 37.8643 -85.4319 298° West 232 267 3,800 -694 Descending FlightAware ADS-B
Tue 11:20:46 PM 37.8951 -85.5052 303° West 231 266 3,300 -639 Descending FlightAware ADS-B
Tue 11:21:46 PM 37.9331 -85.5717 310° West 228 262 2,500 -550 Descending FlightAware ADS-B
Tue 11:22:46 PM 37.9738 -85.6314 311° West 226 260 2,200 -150 Descending FlightAware ADS-B
Tue 11:23:46 PM 38.0143 -85.6868 321° Northwest 187 215 2,200  Level FlightAware ADS-B
Tue 11:24:45 PM 38.0567 -85.7056 345° North 146 168 2,200 -300 Level FlightAware ADS-B
Tue 11:25:46 PM 38.0910 -85.7171 345° North 113 130 1,600 -615 Descending FlightAware ADS-B
Tue 11:26:42 PM 38.1180 -85.7260 345° North 116 133 1,000 -329 Descending FlightAware ADS-B
Tue 11:26:59 PM 38.1333 -85.7333 208° Southwest 117 135 1,200 706 Climbing Louisville TRACON
Tue 11:28:00 PM 38.1667 -85.7333 208° Southwest  Level FlightAware Approximate
Tue 11:32:00 PM 38.1667 -85.7333 208° Southwest  Level FlightAware Approximate
Tue 11:35:00 PM 38.1741 -85.7365 208° Southwest  Level Estimated
Tue 11:36:00 PM 38.1741 -85.7365 208° Southwest  Level Estimated

Login

Don't have an account? Register now (free) for customized features, flight alerts, and more!